MMGL

Don Miguel Hidalgo Y Costilla International Airport

Guadalajara, Mexico
TAF MMGL 212306Z 2200/2306 34008KT P6SM BKN020 BKN080 TX28/2221Z TN16/2212Z FM220600 00000KT P6SM SCT020 BKN080 TEMPO 2208/2212 5SM -RA BKN020 FM221800 09010KT P6SM SCT025 BKN080 BKN250 PROB40 2223/2303 5SM -RA BKN020CB FM230500 00000KT P6SM SCT030 BKN250
Issued Valid From Valid To
Sep-21 @ 23:06 UTC
(4 hours ago)
Sep-22 @ 00:00 UTC
(3 hours ago)
Sep-23 @ 06:00 UTC
(-1 days ago)
to
to
to
to
to
to
TAF MMGL 212306Z 2200/2306 34008KT P6SM BKN020 BKN080 TX28/2221Z TN16/2212Z FM220600 00000KT P6SM SCT020 BKN080 TEMPO 2208/2212 5SM -RA BKN020 FM221800 09010KT P6SM SCT025 BKN080 BKN250 PROB40 2223/2303 5SM -RA BKN020CB FM230500 00000KT P6SM SCT030 BKN250
Issued Sep-21 @ 23:06 UTC
(4 hours ago)
Valid From Sep-22 @ 00:00 UTC
(3 hours ago)
Valid To Sep-23 @ 06:00 UTC
(-1 days ago)
-
-
-
-
-
-